createdAt,value
2023-06-17T00:00:28.639Z,18.41
2023-06-17T00:03:01.132Z,18.30
2023-06-17T00:05:33.375Z,18.28
2023-06-17T00:08:05.697Z,18.24
2023-06-17T00:10:37.918Z,18.28
2023-06-17T00:13:10.256Z,18.26
2023-06-17T00:15:43.786Z,18.24
2023-06-17T00:18:21.302Z,18.20
2023-06-17T00:20:54.628Z,18.06
2023-06-17T00:23:26.803Z,18.05
2023-06-17T00:25:58.948Z,18.14
2023-06-17T00:28:31.182Z,18.15
2023-06-17T00:31:40.923Z,18.12
2023-06-17T00:34:13.082Z,18.11
2023-06-17T00:36:45.316Z,18.00
2023-06-17T00:39:17.393Z,17.96
2023-06-17T00:41:49.528Z,18.10
2023-06-17T00:44:24.691Z,18.16
2023-06-17T00:46:58.664Z,18.11
2023-06-17T00:49:45.299Z,18.14
2023-06-17T00:52:39.350Z,18.24
2023-06-17T00:55:12.382Z,18.32
2023-06-17T00:57:47.311Z,18.28
2023-06-17T01:00:20.200Z,18.24
2023-06-17T01:02:54.037Z,18.29
2023-06-17T01:05:26.765Z,17.96
2023-06-17T01:08:37.461Z,17.97
2023-06-17T01:11:16.316Z,18.10
2023-06-17T01:13:52.094Z,18.09
2023-06-17T01:16:26.853Z,17.99
2023-06-17T01:18:59.471Z,17.92
2023-06-17T01:21:32.760Z,17.73
2023-06-17T01:24:09.148Z,17.82
2023-06-17T01:26:41.695Z,17.56
2023-06-17T01:29:13.909Z,17.62
2023-06-17T01:31:49.926Z,17.58
2023-06-17T01:34:39.022Z,17.57
2023-06-17T01:37:15.204Z,17.71
2023-06-17T01:39:50.948Z,17.87
2023-06-17T01:42:32.900Z,17.98
2023-06-17T01:45:08.064Z,18.06
2023-06-17T01:47:40.831Z,18.13
2023-06-17T01:50:13.122Z,17.93
2023-06-17T01:52:45.501Z,17.94
2023-06-17T01:55:19.444Z,17.98
2023-06-17T01:57:51.861Z,17.97
2023-06-17T02:00:24.226Z,17.89
2023-06-17T02:02:56.499Z,17.74
2023-06-17T02:05:28.864Z,17.67
2023-06-17T02:08:02.702Z,17.76
2023-06-17T02:10:35.271Z,17.81
2023-06-17T02:13:09.437Z,17.90
2023-06-17T02:15:44.047Z,17.94
2023-06-17T02:18:16.381Z,18.01
2023-06-17T02:20:48.776Z,18.02
2023-06-17T02:23:21.405Z,17.96
2023-06-17T02:25:53.687Z,17.96
2023-06-17T02:28:26.656Z,17.98
2023-06-17T02:30:58.815Z,17.94
2023-06-17T02:33:31.176Z,17.99
2023-06-17T02:36:03.969Z,18.00
2023-06-17T02:38:37.264Z,18.05
2023-06-17T02:41:09.592Z,17.90
2023-06-17T02:43:41.959Z,17.95
2023-06-17T02:46:14.224Z,18.13
2023-06-17T02:48:46.425Z,18.08
2023-06-17T02:51:18.653Z,18.01
2023-06-17T02:53:51.462Z,17.90
2023-06-17T02:56:23.871Z,17.82
2023-06-17T02:58:56.020Z,17.74
2023-06-17T03:01:30.079Z,17.89
2023-06-17T03:04:05.032Z,17.88
2023-06-17T03:06:37.471Z,17.96
2023-06-17T03:09:09.912Z,18.01
2023-06-17T03:11:42.134Z,17.94
2023-06-17T03:14:20.862Z,17.96
2023-06-17T03:16:53.396Z,17.99
2023-06-17T03:19:26.622Z,18.10
2023-06-17T03:21:58.761Z,18.15
2023-06-17T03:24:30.981Z,18.22
2023-06-17T03:27:03.317Z,18.16
2023-06-17T03:29:38.030Z,17.98
2023-06-17T03:32:10.487Z,17.89
2023-06-17T03:34:44.210Z,17.79
2023-06-17T03:37:16.580Z,17.92
2023-06-17T03:39:54.001Z,17.96
2023-06-17T03:42:26.155Z,18.03
2023-06-17T03:44:58.315Z,17.66
2023-06-17T03:47:30.533Z,17.74
2023-06-17T03:50:02.683Z,17.78
2023-06-17T03:52:35.251Z,17.64
2023-06-17T03:55:08.022Z,17.66
2023-06-17T03:57:40.187Z,17.84
2023-06-17T04:00:12.874Z,17.81
2023-06-17T04:02:48.774Z,17.90
2023-06-17T04:05:21.694Z,17.85
2023-06-17T04:07:55.227Z,17.90
2023-06-17T04:10:27.811Z,17.95
2023-06-17T04:13:00.008Z,17.99
2023-06-17T04:15:32.199Z,18.08
2023-06-17T04:18:04.572Z,18.16
2023-06-17T04:20:37.052Z,18.22
2023-06-17T04:23:09.329Z,18.23
2023-06-17T04:25:42.358Z,17.96
2023-06-17T04:28:19.027Z,17.89
2023-06-17T04:30:52.943Z,18.03
2023-06-17T04:33:25.995Z,18.16
2023-06-17T04:37:06.039Z,18.27
2023-06-17T04:39:38.306Z,18.25
2023-06-17T04:42:17.573Z,18.18
2023-06-17T04:44:54.023Z,18.28
2023-06-17T04:47:26.216Z,18.32
2023-06-17T04:49:59.140Z,18.26
2023-06-17T04:52:32.407Z,18.19
2023-06-17T04:55:05.053Z,18.22
2023-06-17T04:57:37.209Z,18.28
2023-06-17T05:00:11.599Z,18.37
2023-06-17T05:02:43.935Z,18.42
2023-06-17T05:05:16.084Z,18.39
2023-06-17T05:07:48.291Z,18.38
2023-06-17T05:10:22.629Z,18.47
2023-06-17T05:12:55.007Z,18.40
2023-06-17T05:15:27.068Z,18.40
2023-06-17T05:17:59.202Z,18.55
2023-06-17T05:20:31.421Z,18.51
2023-06-17T05:23:03.576Z,18.58
2023-06-17T05:25:35.662Z,18.58
2023-06-17T05:31:59.783Z,18.54
2023-06-17T05:34:37.001Z,18.65
2023-06-17T05:37:09.122Z,18.68
2023-06-17T05:39:41.420Z,18.75
2023-06-17T05:42:13.858Z,18.74
2023-06-17T05:44:46.364Z,18.79
2023-06-17T05:47:20.893Z,18.78
2023-06-17T05:49:53.161Z,18.64
2023-06-17T05:52:25.674Z,18.77
2023-06-17T05:54:57.917Z,18.77
2023-06-17T05:57:30.015Z,18.88
2023-06-17T06:00:02.173Z,18.65
2023-06-17T06:02:34.290Z,18.72
2023-06-17T06:05:07.636Z,18.79
2023-06-17T06:07:39.749Z,18.68
2023-06-17T06:10:12.958Z,18.78
2023-06-17T06:12:45.138Z,18.97
2023-06-17T06:15:17.210Z,19.15
2023-06-17T06:17:49.362Z,19.16
2023-06-17T06:20:21.865Z,19.14
2023-06-17T06:22:54.665Z,19.05
2023-06-17T06:25:26.843Z,19.12
2023-06-17T06:28:00.057Z,19.09
2023-06-17T06:30:32.209Z,19.12
2023-06-17T06:33:04.495Z,19.14
2023-06-17T06:35:37.049Z,19.18
2023-06-17T06:38:09.242Z,19.24
2023-06-17T06:40:41.801Z,19.27
2023-06-17T06:43:13.958Z,19.32
2023-06-17T06:45:46.067Z,19.41
2023-06-17T06:48:18.307Z,19.42
2023-06-17T06:50:50.394Z,19.36
2023-06-17T06:53:25.345Z,19.52
2023-06-17T06:55:57.979Z,19.33
2023-06-17T06:58:30.111Z,19.39
2023-06-17T07:01:02.231Z,19.57
2023-06-17T07:03:34.526Z,19.58
2023-06-17T07:06:06.674Z,19.70
2023-06-17T07:08:38.813Z,19.91
2023-06-17T07:11:11.016Z,20.02
2023-06-17T07:13:43.264Z,20.05
2023-06-17T07:16:15.846Z,19.84
2023-06-17T07:18:48.019Z,19.93
2023-06-17T07:21:20.147Z,19.97
2023-06-17T07:23:52.606Z,20.27
2023-06-17T07:26:24.755Z,20.41
2023-06-17T07:28:56.955Z,20.47
2023-06-17T07:31:31.939Z,20.38
2023-06-17T07:34:04.289Z,20.40
2023-06-17T07:36:36.373Z,20.04
2023-06-17T07:39:08.977Z,19.97
2023-06-17T07:41:41.128Z,20.16
2023-06-17T07:44:38.276Z,20.24
2023-06-17T07:47:10.364Z,20.25
2023-06-17T07:49:42.516Z,20.10
2023-06-17T07:52:14.690Z,20.24
2023-06-17T07:54:49.137Z,20.35
2023-06-17T07:57:21.258Z,20.43
2023-06-17T07:59:53.577Z,20.46
2023-06-17T08:02:25.971Z,20.56
2023-06-17T08:04:58.091Z,20.68
2023-06-17T08:07:30.160Z,20.75
2023-06-17T08:10:02.705Z,20.39
2023-06-17T08:12:34.824Z,20.62
2023-06-17T08:15:08.126Z,20.61
2023-06-17T08:17:40.325Z,20.76
2023-06-17T08:20:13.016Z,20.87
2023-06-17T08:22:45.199Z,21.02
2023-06-17T08:25:47.171Z,20.84
2023-06-17T08:28:19.547Z,21.12
2023-06-17T08:31:32.366Z,21.20
2023-06-17T08:34:04.556Z,20.92
2023-06-17T08:36:38.686Z,20.98
2023-06-17T08:39:12.089Z,20.72
2023-06-17T08:41:45.422Z,21.09
2023-06-17T08:44:19.841Z,21.46
2023-06-17T08:46:52.981Z,21.60
2023-06-17T08:49:28.136Z,21.76
2023-06-17T08:52:02.089Z,21.89
2023-06-17T08:59:47.860Z,22.19
2023-06-17T09:08:43.645Z,22.41
2023-06-17T09:11:15.967Z,22.40
2023-06-17T09:13:51.840Z,22.54
2023-06-17T09:16:28.144Z,22.70
2023-06-17T09:19:06.395Z,22.71
2023-06-17T09:21:38.557Z,22.90
2023-06-17T09:24:11.133Z,23.41
2023-06-17T09:26:45.367Z,23.83
2023-06-17T09:29:18.019Z,24.18
2023-06-17T09:32:46.290Z,24.14
2023-06-17T09:35:18.822Z,24.05
2023-06-17T09:38:06.349Z,23.84
2023-06-17T09:41:21.753Z,23.62
2023-06-17T09:43:55.969Z,23.75
2023-06-17T09:47:26.587Z,23.72
2023-06-17T09:50:07.035Z,24.46
2023-06-17T09:52:41.499Z,25.36
2023-06-17T09:55:14.113Z,26.75
2023-06-17T09:57:47.408Z,27.00
2023-06-17T10:00:21.268Z,27.03
2023-06-17T10:02:54.932Z,26.56
2023-06-17T10:05:28.599Z,26.40
2023-06-17T10:08:01.092Z,25.72
2023-06-17T10:10:33.422Z,25.86
2023-06-17T10:13:09.207Z,26.01
2023-06-17T10:15:41.941Z,26.90
2023-06-17T10:18:17.816Z,26.87
2023-06-17T10:20:52.126Z,26.78
2023-06-17T10:23:24.790Z,27.00
2023-06-17T10:25:56.940Z,26.29
2023-06-17T10:28:45.916Z,26.68
2023-06-17T10:31:31.444Z,26.25
2023-06-17T10:34:07.613Z,26.19
2023-06-17T10:36:39.769Z,26.41
2023-06-17T10:39:13.850Z,27.09
2023-06-17T10:42:02.524Z,27.60
2023-06-17T10:44:38.580Z,28.10
2023-06-17T10:47:23.392Z,28.49
2023-06-17T10:49:56.094Z,29.27
2023-06-17T10:52:31.311Z,28.58
2023-06-17T10:55:04.321Z,28.16
2023-06-17T10:57:38.526Z,28.25
2023-06-17T11:00:13.449Z,28.97
2023-06-17T11:02:45.960Z,29.42
2023-06-17T11:05:24.812Z,29.50
2023-06-17T11:07:59.683Z,28.49
2023-06-17T11:10:32.726Z,29.29
2023-06-17T11:13:05.974Z,30.65
2023-06-17T11:15:38.123Z,31.57
2023-06-17T11:18:10.670Z,32.29
2023-06-17T11:20:43.898Z,32.54
2023-06-17T11:23:16.478Z,33.37
2023-06-17T11:25:54.279Z,34.06
2023-06-17T11:28:26.726Z,34.41
2023-06-17T11:30:59.333Z,35.15
2023-06-17T11:33:36.189Z,34.81
2023-06-17T11:36:14.332Z,34.68
2023-06-17T11:38:48.044Z,34.93
2023-06-17T11:41:20.660Z,34.56
2023-06-17T11:43:53.306Z,34.67
2023-06-17T11:46:26.187Z,35.18
2023-06-17T11:48:59.378Z,34.80
2023-06-17T11:51:33.688Z,35.54
2023-06-17T11:54:07.392Z,36.56
2023-06-17T11:56:39.627Z,37.50
2023-06-17T11:59:16.498Z,37.77
2023-06-17T12:01:48.934Z,37.56
2023-06-17T12:04:21.559Z,37.03
2023-06-17T12:06:55.055Z,37.59
2023-06-17T12:09:27.569Z,38.32
2023-06-17T12:12:00.740Z,38.31
2023-06-17T12:15:39.116Z,38.77
2023-06-17T12:18:15.260Z,38.36
2023-06-17T12:20:51.664Z,37.50
2023-06-17T12:23:23.874Z,38.15
2023-06-17T12:25:56.118Z,37.91
2023-06-17T12:28:28.452Z,38.28
2023-06-17T12:31:00.798Z,37.96
2023-06-17T12:33:33.039Z,38.61
2023-06-17T12:36:08.685Z,39.60
2023-06-17T12:38:41.194Z,40.33
2023-06-17T12:41:13.765Z,40.90
2023-06-17T12:46:21.687Z,40.37
2023-06-17T12:48:53.853Z,40.40
2023-06-17T12:51:26.127Z,40.00
2023-06-17T12:53:58.635Z,40.25
2023-06-17T12:56:31.383Z,38.26
2023-06-17T12:59:05.944Z,39.66
2023-06-17T13:01:39.462Z,39.88
2023-06-17T13:04:11.809Z,39.58
2023-06-17T13:06:45.597Z,40.65
2023-06-17T13:09:39.210Z,40.35
2023-06-17T13:12:12.643Z,40.91
2023-06-17T13:14:45.053Z,41.15
2023-06-17T13:17:18.063Z,41.14
2023-06-17T13:23:54.532Z,37.94
2023-06-17T13:26:30.770Z,38.48
2023-06-17T13:32:19.842Z,38.14
2023-06-17T13:34:54.996Z,37.63
2023-06-17T13:37:27.419Z,37.42
2023-06-17T13:40:09.616Z,36.34
2023-06-17T13:42:44.433Z,36.14
2023-06-17T13:45:16.859Z,35.92
2023-06-17T13:47:49.052Z,35.72
2023-06-17T13:50:21.907Z,35.73
2023-06-17T13:53:17.080Z,35.02
2023-06-17T13:55:49.970Z,35.33
2023-06-17T13:58:22.243Z,36.00
2023-06-17T14:00:54.869Z,35.99
2023-06-17T14:03:27.145Z,36.36
2023-06-17T14:05:59.874Z,37.20
2023-06-17T14:08:37.649Z,37.85
2023-06-17T14:11:13.150Z,38.30
2023-06-17T14:13:45.273Z,36.97
2023-06-17T14:16:17.630Z,36.88
2023-06-17T14:18:51.993Z,35.95
2023-06-17T14:21:36.011Z,33.98
2023-06-17T14:24:11.065Z,33.31
2023-06-17T14:26:46.256Z,33.54
2023-06-17T14:29:18.561Z,33.51
2023-06-17T14:31:50.716Z,33.18
2023-06-17T14:34:23.083Z,32.76
2023-06-17T14:36:55.327Z,32.97
2023-06-17T14:39:28.228Z,32.79
2023-06-17T14:42:00.588Z,32.36
2023-06-17T14:44:32.888Z,31.92
2023-06-17T14:47:07.682Z,31.17
2023-06-17T14:49:39.933Z,30.57
2023-06-17T14:52:13.400Z,30.44
2023-06-17T14:54:46.040Z,30.20
2023-06-17T14:57:18.313Z,30.33
2023-06-17T14:59:50.850Z,30.26
2023-06-17T15:02:49.771Z,30.06
2023-06-17T15:05:37.728Z,30.15
2023-06-17T15:08:09.874Z,29.98
2023-06-17T15:10:45.589Z,29.93
2023-06-17T15:13:17.724Z,29.68
2023-06-17T15:15:49.863Z,29.59
2023-06-17T15:19:40.133Z,29.60
2023-06-17T15:22:12.321Z,29.62
2023-06-17T15:24:45.012Z,29.77
2023-06-17T15:27:17.298Z,29.92
2023-06-17T15:29:49.404Z,29.68
2023-06-17T15:36:14.075Z,28.88
2023-06-17T15:42:28.960Z,28.99
2023-06-17T15:45:01.140Z,29.12
2023-06-17T15:47:33.439Z,29.06
2023-06-17T15:50:06.359Z,28.89
2023-06-17T15:52:38.581Z,28.96
2023-06-17T15:55:11.478Z,29.18
2023-06-17T15:57:43.628Z,29.44
2023-06-17T16:00:16.365Z,29.31
2023-06-17T16:02:48.623Z,29.01
2023-06-17T16:05:21.058Z,28.98
2023-06-17T16:07:53.213Z,28.96
2023-06-17T16:10:27.702Z,28.69
2023-06-17T16:12:59.918Z,28.82
2023-06-17T16:15:33.105Z,28.70
2023-06-17T16:18:05.398Z,28.66
2023-06-17T16:20:37.770Z,28.67
2023-06-17T16:23:10.037Z,28.84
2023-06-17T16:25:54.714Z,28.86
2023-06-17T16:28:27.569Z,28.64
2023-06-17T16:30:59.705Z,28.47
2023-06-17T16:33:32.003Z,28.39
2023-06-17T16:36:04.414Z,28.43
2023-06-17T16:41:59.067Z,27.75
2023-06-17T16:44:31.420Z,28.02
2023-06-17T16:47:03.764Z,28.19
2023-06-17T16:49:37.288Z,28.26
2023-06-17T16:52:09.930Z,28.29
2023-06-17T16:54:42.209Z,28.19
2023-06-17T16:57:14.458Z,28.21
2023-06-17T16:59:48.645Z,28.50
2023-06-17T17:02:21.105Z,28.71
2023-06-17T17:05:41.809Z,29.25
2023-06-17T17:08:16.858Z,29.74
2023-06-17T17:10:49.166Z,29.61
2023-06-17T17:13:21.514Z,29.74
2023-06-17T17:15:53.791Z,29.77
2023-06-17T17:18:28.927Z,29.68
2023-06-17T17:21:01.218Z,29.23
2023-06-17T17:23:33.740Z,28.84
2023-06-17T17:26:06.002Z,28.73
2023-06-17T17:28:38.132Z,28.49
2023-06-17T17:34:55.945Z,28.04
2023-06-17T17:37:28.778Z,27.70
2023-06-17T17:40:01.253Z,27.38
2023-06-17T17:42:33.403Z,27.21
2023-06-17T17:45:06.497Z,27.15
2023-06-17T17:47:38.831Z,27.02
2023-06-17T17:50:13.201Z,27.03
2023-06-17T17:52:46.048Z,26.88
2023-06-17T17:58:38.850Z,26.45
2023-06-17T18:01:11.010Z,26.21
2023-06-17T18:03:45.940Z,26.24
2023-06-17T18:06:19.601Z,26.20
2023-06-17T18:08:52.223Z,25.99
2023-06-17T18:11:24.687Z,25.98
2023-06-17T18:13:58.535Z,25.95
2023-06-17T18:16:31.197Z,25.94
2023-06-17T18:19:03.650Z,25.82
2023-06-17T18:21:36.378Z,25.73
2023-06-17T18:24:09.560Z,25.65
2023-06-17T18:26:41.884Z,25.45
2023-06-17T18:29:14.064Z,25.50
2023-06-17T18:31:52.087Z,25.53
2023-06-17T18:34:27.353Z,25.35
2023-06-17T18:36:59.560Z,25.17
2023-06-17T18:39:35.033Z,25.10
2023-06-17T18:42:07.383Z,25.14
2023-06-17T18:44:39.745Z,25.13
2023-06-17T18:47:12.469Z,25.13
2023-06-17T18:49:44.831Z,25.12
2023-06-17T18:52:17.375Z,25.05
2023-06-17T18:54:49.797Z,24.93
2023-06-17T18:57:22.141Z,24.70
2023-06-17T18:59:54.347Z,24.63
2023-06-17T19:02:28.267Z,24.51
2023-06-17T19:05:06.221Z,24.44
2023-06-17T19:07:42.304Z,24.44
2023-06-17T19:10:14.604Z,24.34
2023-06-17T19:12:49.515Z,24.27
2023-06-17T19:15:22.097Z,24.20
2023-06-17T19:17:54.307Z,24.13
2023-06-17T19:20:26.866Z,24.11
2023-06-17T19:22:59.175Z,24.14
2023-06-17T19:25:31.872Z,24.02
2023-06-17T19:28:04.396Z,24.02
2023-06-17T19:30:36.806Z,24.00
2023-06-17T19:33:09.046Z,23.82
2023-06-17T19:35:41.328Z,23.71
2023-06-17T19:38:16.161Z,23.69
2023-06-17T19:40:48.424Z,23.58
2023-06-17T19:43:23.916Z,23.60
2023-06-17T19:45:56.259Z,23.60
2023-06-17T19:48:28.922Z,23.48
2023-06-17T19:51:01.140Z,23.29
2023-06-17T19:53:33.336Z,23.28
2023-06-17T19:56:10.470Z,23.29
2023-06-17T19:58:44.434Z,23.32
2023-06-17T20:01:18.875Z,23.34
2023-06-17T20:03:51.247Z,23.28
2023-06-17T20:06:25.661Z,23.28
2023-06-17T20:09:11.780Z,23.26
2023-06-17T20:11:44.111Z,23.03
2023-06-17T20:14:17.450Z,22.94
2023-06-17T20:16:50.183Z,22.99
2023-06-17T20:19:22.890Z,22.99
2023-06-17T20:21:55.145Z,22.87
2023-06-17T20:24:27.742Z,22.80
2023-06-17T20:27:00.119Z,22.70
2023-06-17T20:29:32.496Z,22.62
2023-06-17T20:32:05.808Z,22.62
2023-06-17T20:35:42.712Z,22.40
2023-06-17T21:17:59.679Z,21.24
2023-06-17T21:20:32.016Z,21.24
2023-06-17T21:23:04.501Z,21.03
2023-06-17T21:25:36.740Z,21.02
2023-06-17T21:28:08.953Z,21.03
2023-06-17T21:30:41.393Z,21.09
2023-06-17T21:33:14.122Z,20.99
2023-06-17T21:35:46.423Z,20.83
2023-06-17T21:38:18.697Z,20.78
2023-06-17T21:40:51.100Z,20.86
2023-06-17T21:43:23.217Z,20.88
2023-06-17T21:45:55.374Z,20.93
2023-06-17T21:48:28.248Z,20.95
2023-06-17T21:51:00.609Z,20.91
2023-06-17T21:53:32.738Z,20.86
2023-06-17T21:56:05.183Z,20.76
2023-06-17T21:58:37.327Z,20.70
2023-06-17T22:01:09.878Z,20.66
2023-06-17T22:03:42.446Z,20.65
2023-06-17T22:06:14.935Z,20.61
2023-06-17T22:08:47.096Z,20.59
2023-06-17T22:11:19.320Z,20.59
2023-06-17T22:13:51.727Z,20.61
2023-06-17T22:16:24.125Z,20.53
2023-06-17T22:18:57.804Z,20.55
2023-06-17T22:21:30.106Z,20.46
2023-06-17T22:24:02.536Z,20.46
2023-06-17T22:26:34.910Z,20.47
2023-06-17T22:29:07.057Z,20.46
2023-06-17T22:31:39.311Z,20.54
2023-06-17T22:34:11.532Z,20.51
2023-06-17T22:36:43.678Z,20.43
2023-06-17T22:39:15.826Z,20.44
2023-06-17T22:41:48.020Z,20.46
2023-06-17T22:44:23.562Z,20.39
2023-06-17T22:46:56.042Z,20.32
2023-06-17T22:49:28.217Z,20.19
2023-06-17T22:52:00.565Z,20.22
2023-06-17T22:54:34.147Z,20.20
2023-06-17T22:57:07.289Z,20.08
2023-06-17T22:59:39.441Z,20.01
2023-06-17T23:02:13.501Z,19.94
2023-06-17T23:04:45.783Z,19.99
2023-06-17T23:07:19.314Z,19.83
2023-06-17T23:09:51.570Z,19.86
2023-06-17T23:12:23.839Z,19.86
2023-06-17T23:14:56.422Z,19.86
2023-06-17T23:17:28.707Z,19.86
2023-06-17T23:20:01.796Z,19.77
2023-06-17T23:22:34.983Z,19.78
2023-06-17T23:25:08.745Z,19.78
2023-06-17T23:27:41.965Z,19.70
2023-06-17T23:30:14.847Z,19.60
2023-06-17T23:32:48.150Z,19.62
2023-06-17T23:35:21.653Z,19.61
2023-06-17T23:37:53.773Z,19.54
2023-06-17T23:40:26.052Z,19.52
2023-06-17T23:42:58.213Z,19.53
2023-06-17T23:45:30.776Z,19.42
2023-06-17T23:48:03.208Z,19.39
2023-06-17T23:50:35.622Z,19.36
2023-06-17T23:53:07.824Z,19.28
2023-06-17T23:55:40.012Z,19.23
2023-06-17T23:58:12.504Z,19.24
